createdAt,value
2019-04-22T17:28:19.386Z,94335.53
2019-04-22T18:08:51.860Z,94334.62
2019-04-22T18:19:21.137Z,94322.48
2019-04-22T18:30:05.149Z,94317.34
2019-04-22T18:31:06.326Z,94322.16
2019-04-22T18:32:08.781Z,94330.56
2019-04-22T18:33:24.202Z,94323.63
2019-04-22T18:34:23.867Z,94325.31
2019-04-22T18:35:32.402Z,94326.02
2019-04-22T18:36:37.254Z,94330.71
2019-04-22T18:37:49.982Z,94329.79
2019-04-22T18:39:01.213Z,94333.53
2019-04-22T18:39:57.014Z,94330.42
2019-04-22T18:40:59.054Z,94332.03
2019-04-22T18:42:03.663Z,94339.26
2019-04-22T18:43:11.941Z,94337.22
2019-04-22T18:44:25.441Z,94344.70
2019-04-22T18:46:26.919Z,94336.69
2019-04-22T18:47:29.611Z,94341.97
2019-04-22T18:48:39.970Z,94335.47
2019-04-22T18:49:45.158Z,94340.75
2019-04-22T18:50:58.162Z,94344.34
2019-04-22T18:52:22.762Z,94342.80
2019-04-22T18:53:30.041Z,94343.05
2019-04-22T18:54:30.925Z,94341.62
2019-04-22T18:55:40.144Z,94340.62
2019-04-22T18:56:50.798Z,94337.23
2019-04-22T18:58:06.796Z,94343.48
2019-04-22T18:59:05.613Z,94339.11
2019-04-22T19:00:02.687Z,94337.19
2019-04-22T19:01:08.225Z,94335.55
2019-04-22T19:02:16.340Z,94340.28
2019-04-22T19:03:23.874Z,94344.61
2019-04-22T19:04:31.590Z,94341.61
2019-04-22T19:05:45.407Z,94339.22
2019-04-22T19:06:56.905Z,94337.02
2019-04-22T19:08:07.708Z,94342.20
2019-04-22T19:09:10.627Z,94339.91
2019-04-22T19:10:17.309Z,94334.73
2019-04-22T19:11:16.669Z,94333.52
2019-04-22T19:12:41.878Z,94335.00
2019-04-22T19:13:53.172Z,94337.87
2019-04-22T19:14:40.791Z,94331.74
2019-04-22T19:15:42.903Z,94324.69
2019-04-22T19:17:07.347Z,94329.59
2019-04-22T19:17:55.145Z,94330.61
2019-04-22T19:19:18.385Z,94319.88
2019-04-22T19:20:13.369Z,94323.45
2019-04-22T19:21:07.810Z,94318.73
2019-04-22T19:22:09.154Z,94320.39
2019-04-22T19:23:20.988Z,94323.80
2019-04-22T19:24:17.066Z,94323.89
2019-04-22T19:25:17.498Z,94323.27
2019-04-22T19:26:42.572Z,94327.34
2019-04-22T19:27:36.089Z,94328.40
2019-04-22T19:28:42.269Z,94330.79
2019-04-22T19:29:52.396Z,94333.30
2019-04-22T19:31:00.952Z,94333.92
2019-04-22T19:31:57.056Z,94340.81
2019-04-22T19:33:07.600Z,94340.62
2019-04-22T19:34:09.427Z,94344.11
2019-04-22T19:35:14.112Z,94343.09
2019-04-22T19:36:21.257Z,94338.05
2019-04-22T19:37:25.382Z,94337.30
2019-04-22T19:38:20.679Z,94340.44
2019-04-22T19:39:31.102Z,94334.79
2019-04-22T19:40:55.462Z,94331.61
2019-04-22T19:41:55.799Z,94324.95
2019-04-22T19:43:05.828Z,94308.59
2019-04-22T19:44:03.870Z,94333.42
2019-04-22T19:45:05.887Z,94327.12
2019-04-22T19:46:14.706Z,94332.95
2019-04-22T19:48:35.951Z,94331.82
2019-04-22T19:49:38.459Z,94325.75
2019-04-22T19:50:35.119Z,94326.56
2019-04-22T19:52:47.810Z,94330.56
2019-04-22T19:53:52.516Z,94331.86
2019-04-22T19:55:03.314Z,94327.46
2019-04-22T19:55:59.772Z,94327.86
2019-04-22T19:57:00.181Z,94322.91
2019-04-22T19:58:07.187Z,94329.50
2019-04-22T19:59:13.795Z,94326.37
2019-04-22T20:00:37.506Z,94324.20
2019-04-22T20:02:01.088Z,94321.41
2019-04-22T20:03:16.967Z,94313.31
2019-04-22T20:04:39.816Z,94322.35
2019-04-22T20:05:47.908Z,94320.70
2019-04-22T20:06:53.984Z,94321.89
2019-04-22T20:08:05.920Z,94317.19
2019-04-22T20:09:05.787Z,94314.33
2019-04-22T20:10:19.107Z,94316.28
2019-04-22T20:11:22.751Z,94310.30
2019-04-22T20:12:21.338Z,94311.82
2019-04-22T20:13:38.662Z,94313.31
2019-04-22T20:14:38.225Z,94308.92
2019-04-22T20:15:35.800Z,94317.71
2019-04-22T20:16:41.351Z,94307.06
2019-04-22T20:18:19.144Z,94310.16
2019-04-22T20:18:56.938Z,94307.44
2019-04-22T20:20:06.378Z,94304.41
2019-04-22T20:21:11.918Z,94304.44
2019-04-22T20:22:15.780Z,94304.50
2019-04-22T20:23:15.934Z,94300.72
2019-04-22T20:24:12.004Z,94293.79
2019-04-22T20:25:21.214Z,94295.84
2019-04-22T20:26:40.784Z,94290.38
2019-04-22T20:27:41.636Z,94293.02
2019-04-22T20:28:51.342Z,94295.00
2019-04-22T20:29:47.884Z,94291.81
2019-04-22T20:30:55.818Z,94286.48
2019-04-22T20:32:02.500Z,94290.76
2019-04-22T20:33:04.695Z,94286.52
2019-04-22T20:34:18.694Z,94287.63
2019-04-22T20:35:21.008Z,94286.98
2019-04-22T20:36:39.467Z,94285.84
2019-04-22T20:38:31.075Z,94283.06
2019-04-22T20:39:40.951Z,94280.92
2019-04-22T20:40:41.396Z,94281.35
2019-04-22T20:41:41.117Z,94277.11
2019-04-22T20:43:04.131Z,94280.95
2019-04-22T20:43:56.559Z,94280.52
2019-04-22T20:45:04.878Z,94284.22
2019-04-22T20:46:08.419Z,94283.20
2019-04-22T20:47:09.394Z,94279.52
2019-04-22T20:48:07.957Z,94283.66
2019-04-22T20:49:29.296Z,94276.73
2019-04-22T20:50:32.875Z,94277.53
2019-04-22T20:51:48.724Z,94280.67
2019-04-22T20:52:47.196Z,94275.05
2019-04-22T20:53:52.333Z,94274.64
2019-04-22T20:54:50.970Z,94272.11
2019-04-22T20:56:00.584Z,94270.78
2019-04-22T20:56:57.740Z,94265.48
2019-04-22T20:58:06.471Z,94271.88
2019-04-22T20:59:15.086Z,94270.27
2019-04-22T21:00:15.093Z,94272.90
2019-04-22T21:01:22.786Z,94267.68
2019-04-22T21:02:25.116Z,94271.75
2019-04-22T21:03:21.660Z,94268.80
2019-04-22T21:04:28.511Z,94271.23
2019-04-22T21:05:34.178Z,94265.46
2019-04-22T21:06:47.711Z,94267.48
2019-04-22T21:08:01.463Z,94268.19
2019-04-22T21:09:01.052Z,94263.18
2019-04-22T21:10:01.288Z,94266.66
2019-04-22T21:11:04.154Z,94261.55
2019-04-22T21:12:12.178Z,94264.51
2019-04-22T21:13:12.824Z,94261.74
2019-04-22T21:14:19.666Z,94261.15
2019-04-22T21:15:36.924Z,94260.67
2019-04-22T21:16:40.137Z,94257.58
2019-04-22T21:17:42.034Z,94253.59
2019-04-22T21:18:43.764Z,94259.63
2019-04-22T21:20:13.810Z,94254.87
2019-04-22T21:21:03.443Z,94255.64
2019-04-22T21:22:05.063Z,94245.92
2019-04-22T21:23:05.655Z,94243.28
2019-04-22T21:24:03.195Z,94245.06
2019-04-22T21:25:14.157Z,94245.08
2019-04-22T21:26:24.436Z,94241.95
2019-04-22T21:27:37.046Z,94245.55
2019-04-22T21:28:33.124Z,94247.96
2019-04-22T21:29:36.046Z,94244.28
2019-04-22T21:30:43.332Z,94246.77
2019-04-22T21:31:51.378Z,94241.69
2019-04-22T21:32:54.842Z,94243.28
2019-04-22T21:33:55.822Z,94242.41
2019-04-22T21:35:05.733Z,94239.55
2019-04-22T21:36:30.087Z,94235.88
2019-04-22T21:37:20.297Z,94240.61
2019-04-22T21:38:24.101Z,94237.26
2019-04-22T21:39:28.228Z,94244.48
2019-04-22T21:40:35.583Z,94242.98
2019-04-22T21:41:37.531Z,94231.20
2019-04-22T21:42:48.935Z,94235.02
2019-04-22T21:43:53.363Z,94233.06
2019-04-22T21:44:50.984Z,94233.34
2019-04-22T21:46:04.150Z,94232.43
2019-04-22T21:47:10.449Z,94227.73
2019-04-22T21:48:20.273Z,94230.80
2019-04-22T21:49:21.648Z,94224.81
2019-04-22T21:51:33.114Z,94225.73
2019-04-22T21:52:35.859Z,94222.20
2019-04-22T21:53:43.880Z,94218.05
2019-04-22T21:54:48.953Z,94215.42
2019-04-22T21:55:50.749Z,94217.92
2019-04-22T21:57:09.072Z,94213.09
2019-04-22T21:59:12.570Z,94211.33
2019-04-22T22:00:31.223Z,94205.28
2019-04-22T22:01:38.128Z,94208.87
2019-04-22T22:02:42.103Z,94206.23
2019-04-22T22:03:44.298Z,94204.47
2019-04-22T22:04:44.306Z,94209.00
2019-04-22T22:05:46.288Z,94206.35
2019-04-22T22:06:44.449Z,94204.44
2019-04-22T22:07:52.116Z,94205.78
2019-04-22T22:09:09.279Z,94203.84
2019-04-22T22:10:12.187Z,94200.55
2019-04-22T22:11:13.561Z,94205.75
2019-04-22T22:12:18.230Z,94196.67
2019-04-22T22:13:31.884Z,94202.30
2019-04-22T22:14:36.729Z,94199.92
2019-04-22T22:15:38.706Z,94200.20
2019-04-22T22:16:38.952Z,94203.13
2019-04-22T22:17:48.859Z,94194.74
2019-04-22T22:18:59.228Z,94194.56
2019-04-22T22:19:57.913Z,94196.45
2019-04-22T22:21:19.602Z,94189.84
2019-04-22T22:22:15.153Z,94191.17
2019-04-22T22:23:22.563Z,94191.20
2019-04-22T22:24:23.164Z,94195.60
2019-04-22T22:25:26.840Z,94192.81
2019-04-22T22:26:38.019Z,94195.20
2019-04-22T22:27:35.415Z,94199.34
2019-04-22T22:28:52.218Z,94190.64
2019-04-22T22:30:18.975Z,94196.70
2019-04-22T22:31:14.795Z,94193.89
2019-04-22T22:32:02.695Z,94193.03
2019-04-22T22:33:05.770Z,94186.67
2019-04-22T22:34:15.152Z,94195.25
2019-04-22T22:35:14.705Z,94182.73
2019-04-22T22:36:17.604Z,94185.24
2019-04-22T22:37:13.290Z,94183.16
2019-04-22T22:38:27.087Z,94188.74
2019-04-22T22:39:26.980Z,94180.97
2019-04-22T22:40:26.352Z,94181.83
2019-04-22T22:41:26.031Z,94175.06
2019-04-22T22:42:38.163Z,94176.11
2019-04-22T22:43:41.254Z,94173.88
2019-04-22T22:44:44.763Z,94171.84
2019-04-22T22:46:00.244Z,94172.56
2019-04-22T22:47:15.619Z,94171.23
2019-04-22T22:48:23.201Z,94170.34
2019-04-22T22:49:23.388Z,94167.13
2019-04-22T22:50:25.991Z,94167.02
2019-04-22T22:51:39.536Z,94171.70
2019-04-22T22:52:50.334Z,94166.69
2019-04-22T22:53:47.822Z,94168.47
2019-04-22T22:54:46.450Z,94171.11
2019-04-22T22:55:53.240Z,94167.88
2019-04-22T22:57:02.037Z,94166.84
2019-04-22T22:58:03.995Z,94166.09
2019-04-22T22:59:10.860Z,94159.86
2019-04-22T23:00:11.471Z,94158.70
2019-04-22T23:01:23.551Z,94160.78
2019-04-22T23:02:22.884Z,94160.20
2019-04-22T23:03:49.519Z,94164.58
2019-04-22T23:04:39.900Z,94158.30
2019-04-22T23:05:45.997Z,94156.69
2019-04-22T23:06:53.206Z,94155.94
2019-04-22T23:07:53.839Z,94156.25
2019-04-22T23:08:56.013Z,94149.03
2019-04-22T23:10:00.243Z,94151.11
2019-04-22T23:11:40.547Z,94149.49
2019-04-22T23:12:24.811Z,94148.88
2019-04-22T23:13:21.514Z,94145.64
2019-04-22T23:14:26.356Z,94144.19
2019-04-22T23:15:27.630Z,94142.13
2019-04-22T23:16:27.400Z,94142.13
2019-04-22T23:17:25.599Z,94145.64
2019-04-22T23:18:25.889Z,94139.30
2019-04-22T23:19:32.612Z,94139.47
2019-04-22T23:20:41.430Z,94139.77
2019-04-22T23:21:46.021Z,94137.56
2019-04-22T23:23:10.230Z,94137.41
2019-04-22T23:24:11.132Z,94133.88
2019-04-22T23:26:40.405Z,94128.30
2019-04-22T23:27:42.040Z,94125.06
2019-04-22T23:28:43.513Z,94124.91
2019-04-22T23:30:02.427Z,94126.39
2019-04-22T23:31:14.362Z,94126.52
2019-04-22T23:32:22.688Z,94119.31
2019-04-22T23:33:32.371Z,94121.97
2019-04-22T23:34:40.518Z,94120.19
2019-04-22T23:35:54.872Z,94116.20
2019-04-22T23:37:08.482Z,94115.63
2019-04-22T23:38:16.434Z,94115.05
2019-04-22T23:39:36.923Z,94114.02
2019-04-22T23:40:35.832Z,94109.00
2019-04-22T23:42:44.633Z,94108.55
2019-04-22T23:43:57.658Z,94110.76
2019-04-22T23:45:00.334Z,94103.22
2019-04-22T23:46:02.416Z,94109.56
2019-04-22T23:47:08.511Z,94105.45
2019-04-22T23:48:11.214Z,94107.50
2019-04-22T23:49:18.077Z,94098.49
2019-04-22T23:50:30.785Z,94098.78
2019-04-22T23:51:34.449Z,94099.84
2019-04-22T23:52:43.204Z,94094.70
2019-04-22T23:54:00.938Z,94099.55
2019-04-22T23:55:11.614Z,94098.27
2019-04-22T23:56:12.612Z,94099.72
2019-04-22T23:57:09.013Z,94094.30
2019-04-22T23:58:34.947Z,94097.53
2019-04-22T23:59:38.219Z,94094.14
